Time;durP1;ratioP1;P1;durP2;ratioP2;P2;SDS_P1;SDS_P2;PMS_P1;PMS_P2;Temp;Humidity;BMP_temperature;BMP_pressure;BME280_temperature;BME280_humidity;BME280_pressure;Samples;Min_cycle;Max_cycle;Signal;HPM_P1;HPM_P2
2024/03/01 00:00:54;;;;;;;21.67;13.65;;;5.70;99.90;;;;;;5041175;28;20203;-62
2024/03/01 00:03:21;;;;;;;21.48;14.35;;;5.80;99.90;;;;;;5039808;28;20237;-62
2024/03/01 00:05:47;;;;;;;21.48;14.07;;;5.70;99.90;;;;;;5040061;28;20203;-62
2024/03/01 00:08:14;;;;;;;22.00;14.38;;;5.70;99.90;;;;;;5039912;28;20200;-63
2024/03/01 00:10:41;;;;;;;21.80;13.25;;;5.70;99.90;;;;;;5038789;28;20797;-62
2024/03/01 00:13:08;;;;;;;24.20;15.20;;;5.70;99.90;;;;;;5040320;28;20234;-63
2024/03/01 00:15:37;;;;;;;21.48;14.00;;;5.70;99.90;;;;;;5040473;28;20200;-61
2024/03/01 00:18:04;;;;;;;23.30;13.80;;;5.70;99.90;;;;;;5042166;28;20215;-62
2024/03/01 00:20:31;;;;;;;19.67;13.23;;;5.60;99.90;;;;;;5046112;28;20198;-63
2024/03/01 00:22:58;;;;;;;21.17;13.43;;;5.60;99.90;;;;;;5045878;28;20226;-63
2024/03/01 00:25:24;;;;;;;20.23;14.70;;;5.60;99.90;;;;;;5037727;28;20203;-62
2024/03/01 00:27:51;;;;;;;23.23;15.15;;;5.60;99.90;;;;;;5036249;28;20198;-62
2024/03/01 00:30:18;;;;;;;22.30;14.18;;;5.60;99.90;;;;;;5038931;28;20217;-62
2024/03/01 00:32:46;;;;;;;23.48;14.60;;;5.60;99.90;;;;;;5038856;28;20230;-62
2024/03/01 00:35:13;;;;;;;21.33;12.60;;;5.60;99.90;;;;;;5039503;28;20695;-62
2024/03/01 00:37:41;;;;;;;23.23;14.00;;;5.60;99.90;;;;;;5041989;28;20216;-63
2024/03/01 00:40:08;;;;;;;23.30;15.40;;;5.60;99.90;;;;;;5040112;28;20211;-63
2024/03/01 00:42:35;;;;;;;24.08;14.68;;;5.60;99.90;;;;;;5039183;28;20222;-62
2024/03/01 00:45:02;;;;;;;24.42;15.07;;;5.70;99.90;;;;;;5039210;28;20229;-62
2024/03/01 00:47:29;;;;;;;23.35;13.80;;;5.70;99.90;;;;;;5037941;28;20265;-62
2024/03/01 00:49:57;;;;;;;24.90;15.18;;;5.60;99.90;;;;;;5039286;28;20208;-64
2024/03/01 00:52:23;;;;;;;24.77;15.00;;;5.60;99.90;;;;;;5038299;28;20228;-63
2024/03/01 00:54:50;;;;;;;24.30;14.75;;;5.60;99.90;;;;;;5039672;28;20203;-63
2024/03/01 00:57:17;;;;;;;28.63;15.10;;;5.60;99.90;;;;;;5038947;28;20216;-62
2024/03/01 00:59:44;;;;;;;24.17;15.52;;;5.50;99.90;;;;;;5040903;28;20227;-62
2024/03/01 01:02:10;;;;;;;22.73;14.73;;;5.50;99.90;;;;;;5041061;28;20697;-61
2024/03/01 01:04:38;;;;;;;24.02;15.48;;;5.50;99.90;;;;;;5040425;28;20208;-62
2024/03/01 01:07:07;;;;;;;25.08;15.48;;;5.40;99.90;;;;;;5037861;28;20664;-63
2024/03/01 01:09:33;;;;;;;28.17;15.65;;;5.40;99.90;;;;;;5037688;28;20198;-62
2024/03/01 01:12:00;;;;;;;24.70;15.57;;;5.40;99.90;;;;;;5037189;28;20741;-62
2024/03/01 01:14:27;;;;;;;25.40;14.68;;;5.30;99.90;;;;;;5037685;28;20205;-62
2024/03/01 01:16:54;;;;;;;25.88;16.08;;;5.30;99.90;;;;;;5037871;28;20208;-62
2024/03/01 01:19:20;;;;;;;23.42;13.85;;;5.30;99.90;;;;;;5037707;28;20224;-63
2024/03/01 01:21:47;;;;;;;24.73;14.45;;;5.30;99.90;;;;;;5037260;28;20261;-62
2024/03/01 01:24:15;;;;;;;26.05;15.88;;;5.20;99.90;;;;;;5037235;28;20285;-62
2024/03/01 01:26:42;;;;;;;25.65;15.55;;;5.20;99.90;;;;;;5037956;28;20293;-62
2024/03/01 01:29:09;;;;;;;29.65;15.85;;;5.20;99.90;;;;;;5036877;28;20308;-61
2024/03/01 01:31:36;;;;;;;24.10;14.38;;;5.20;99.90;;;;;;5036744;28;20313;-62
2024/03/01 01:34:03;;;;;;;22.33;15.88;;;5.20;99.90;;;;;;5036814;28;20241;-62
2024/03/01 01:36:30;;;;;;;25.30;14.73;;;5.20;99.90;;;;;;5036369;28;20590;-62
2024/03/01 01:38:57;;;;;;;24.00;14.48;;;5.20;99.90;;;;;;5036486;28;20577;-62
2024/03/01 01:41:25;;;;;;;25.05;14.85;;;5.20;99.90;;;;;;5036350;28;20317;-62
2024/03/01 01:43:52;;;;;;;22.42;14.35;;;5.10;99.90;;;;;;5036729;28;20213;-63
2024/03/01 01:46:19;;;;;;;24.05;14.55;;;5.20;99.90;;;;;;5037279;28;20298;-62
2024/03/01 01:48:46;;;;;;;25.52;15.48;;;5.10;99.90;;;;;;5037382;28;20294;-63
2024/03/01 01:51:15;;;;;;;26.83;15.82;;;5.10;99.90;;;;;;5038018;28;20285;-63
2024/03/01 01:53:43;;;;;;;28.80;16.58;;;5.10;99.90;;;;;;5038638;28;20732;-61
2024/03/01 01:56:10;;;;;;;26.05;15.65;;;5.10;99.90;;;;;;5040277;28;20242;-62
2024/03/01 01:58:39;;;;;;;25.23;16.13;;;5.10;99.90;;;;;;5039260;28;20226;-62
2024/03/01 02:01:07;;;;;;;23.13;14.77;;;5.10;99.90;;;;;;5036429;28;20289;-63
2024/03/01 02:03:35;;;;;;;22.90;15.40;;;5.10;99.90;;;;;;5037101;28;20229;-62
2024/03/01 02:06:03;;;;;;;26.90;17.35;;;5.00;99.90;;;;;;5036475;28;20207;-62
2024/03/01 02:08:32;;;;;;;27.17;14.50;;;5.00;99.90;;;;;;5036599;28;20225;-62
2024/03/01 02:10:59;;;;;;;22.95;14.55;;;5.00;99.90;;;;;;5036897;28;20286;-63
2024/03/01 02:13:26;;;;;;;27.27;15.70;;;5.00;99.90;;;;;;5038881;28;20223;-62
2024/03/01 02:15:54;;;;;;;28.88;16.00;;;5.00;99.90;;;;;;5047178;28;20205;-62
2024/03/01 02:18:21;;;;;;;20.15;13.77;;;5.00;99.90;;;;;;5045659;28;20270;-62
2024/03/01 02:21:01;;;;;;;29.00;15.70;;;5.00;99.90;;;;;;5040348;28;20206;-63
2024/03/01 02:23:29;;;;;;;24.63;15.60;;;5.00;99.90;;;;;;5041861;28;20212;-60
2024/03/01 02:25:56;;;;;;;24.23;14.70;;;4.90;99.90;;;;;;5037613;28;20289;-61
2024/03/01 02:28:23;;;;;;;27.35;16.35;;;4.90;99.90;;;;;;5036743;28;20290;-63
2024/03/01 02:30:51;;;;;;;27.48;17.10;;;4.90;99.90;;;;;;5036689;28;20294;-62
2024/03/01 02:33:18;;;;;;;27.02;15.05;;;4.90;99.90;;;;;;5035730;28;20289;-62
2024/03/01 02:35:45;;;;;;;26.25;15.50;;;4.90;99.90;;;;;;5035881;28;20209;-62
2024/03/01 02:38:11;;;;;;;27.20;15.65;;;4.90;99.90;;;;;;5036320;28;20683;-63
2024/03/01 02:40:40;;;;;;;30.13;16.77;;;4.90;99.90;;;;;;5035871;28;20207;-62
2024/03/01 02:43:07;;;;;;;29.70;17.50;;;4.90;99.90;;;;;;5038546;28;20329;-63
2024/03/01 02:45:34;;;;;;;26.58;15.18;;;5.00;99.90;;;;;;5038647;28;20205;-62
2024/03/01 02:48:01;;;;;;;22.65;14.18;;;5.00;99.90;;;;;;5036265;28;20203;-62
2024/03/01 02:50:27;;;;;;;29.27;15.98;;;5.00;99.90;;;;;;5035466;28;20526;-62
2024/03/01 02:52:54;;;;;;;27.92;16.15;;;4.90;99.90;;;;;;5034318;28;20224;-62
2024/03/01 02:55:21;;;;;;;26.20;17.05;;;5.00;99.90;;;;;;5038467;28;20209;-62
2024/03/01 02:57:50;;;;;;;27.75;16.45;;;5.00;99.90;;;;;;5039519;28;20202;-61
2024/03/01 03:00:18;;;;;;;28.95;17.95;;;4.90;99.90;;;;;;5036803;28;20245;-62
2024/03/01 03:02:46;;;;;;;29.00;17.67;;;4.90;99.90;;;;;;5035503;28;20236;-63
2024/03/01 03:05:12;;;;;;;26.83;14.98;;;4.90;99.90;;;;;;5035578;28;20206;-62
2024/03/01 03:07:39;;;;;;;29.85;15.35;;;4.90;99.90;;;;;;5035387;28;20214;-62
2024/03/01 03:10:06;;;;;;;26.65;15.25;;;4.90;99.90;;;;;;5035943;28;20201;-62
2024/03/01 03:12:33;;;;;;;24.75;14.80;;;5.00;99.90;;;;;;5036513;28;20273;-62
2024/03/01 03:15:07;;;;;;;28.50;16.23;;;5.00;99.90;;;;;;5036185;28;20297;-63
2024/03/01 03:17:34;;;;;;;28.77;15.75;;;5.00;99.90;;;;;;5037283;28;20195;-63
2024/03/01 03:20:09;;;;;;;25.77;15.95;;;5.00;99.90;;;;;;5036705;28;20230;-63
2024/03/01 03:22:36;;;;;;;25.30;16.80;;;5.00;99.90;;;;;;5035936;28;20339;-62
2024/03/01 03:25:03;;;;;;;26.00;16.48;;;5.00;99.90;;;;;;5035200;28;20210;-62
2024/03/01 03:27:30;;;;;;;30.98;17.52;;;5.00;99.90;;;;;;5035145;28;20207;-61
2024/03/01 03:29:57;;;;;;;25.58;16.00;;;5.00;99.90;;;;;;5035084;28;20202;-62
2024/03/01 03:32:25;;;;;;;27.98;16.40;;;5.00;99.90;;;;;;5035022;28;20221;-63
2024/03/01 03:34:52;;;;;;;25.35;15.15;;;5.00;99.90;;;;;;5036694;28;20234;-62
2024/03/01 03:37:20;;;;;;;26.17;15.35;;;5.00;99.90;;;;;;5037016;28;20202;-62
2024/03/01 03:39:46;;;;;;;29.50;16.33;;;5.00;99.90;;;;;;5035333;28;20218;-62
2024/03/01 03:42:13;;;;;;;26.45;14.60;;;5.00;99.90;;;;;;5035109;28;20237;-63
2024/03/01 03:44:40;;;;;;;32.30;16.80;;;5.00;99.90;;;;;;5034784;28;20674;-62
2024/03/01 03:47:07;;;;;;;28.42;18.02;;;5.00;99.90;;;;;;5035710;28;20207;-62
2024/03/01 03:49:35;;;;;;;28.00;17.27;;;5.00;99.90;;;;;;5036087;28;20195;-62
2024/03/01 03:52:02;;;;;;;27.55;16.50;;;4.90;99.90;;;;;;5037098;28;20223;-62
2024/03/01 03:54:28;;;;;;;27.05;16.20;;;5.00;99.90;;;;;;5037660;28;20203;-62
2024/03/01 03:56:55;;;;;;;29.20;17.00;;;4.90;99.90;;;;;;5038947;28;20209;-62
2024/03/01 03:59:22;;;;;;;29.27;16.98;;;4.90;99.90;;;;;;5037980;28;20220;-62
2024/03/01 04:01:49;;;;;;;27.63;16.70;;;4.80;99.90;;;;;;5037281;28;20228;-62
2024/03/01 04:04:16;;;;;;;32.60;17.75;;;4.80;99.90;;;;;;5037282;28;20203;-62
2024/03/01 04:06:44;;;;;;;29.33;16.88;;;4.80;99.90;;;;;;5036822;28;20581;-62
2024/03/01 04:09:12;;;;;;;26.60;16.35;;;4.80;99.90;;;;;;5036114;28;20668;-62
2024/03/01 04:13:16;;;;;;;28.33;16.25;;;4.80;99.90;;;;;;5134315;27;20628;-62
2024/03/01 04:15:43;;;;;;;26.73;16.75;;;4.80;99.90;;;;;;5112958;28;20203;-61
2024/03/01 04:18:10;;;;;;;30.17;17.13;;;4.80;99.90;;;;;;5112669;28;20303;-63
2024/03/01 04:20:37;;;;;;;28.55;17.35;;;4.80;99.90;;;;;;5113129;28;20209;-62
2024/03/01 04:23:04;;;;;;;26.38;17.08;;;4.70;99.90;;;;;;5112619;28;20227;-62
2024/03/01 04:25:32;;;;;;;26.27;16.00;;;4.70;99.90;;;;;;5129770;22;20224;-62
2024/03/01 04:27:58;;;;;;;26.17;16.15;;;4.70;99.90;;;;;;5089898;28;20200;-63
2024/03/01 04:30:27;;;;;;;26.13;15.02;;;4.70;99.90;;;;;;5090182;28;20207;-62
2024/03/01 04:32:54;;;;;;;29.10;17.83;;;4.70;99.90;;;;;;5090013;28;20228;-63
2024/03/01 04:35:21;;;;;;;27.55;16.10;;;4.70;99.90;;;;;;5090086;28;20227;-63
2024/03/01 04:37:47;;;;;;;29.75;16.80;;;4.70;99.90;;;;;;5090244;28;20215;-63
2024/03/01 04:40:14;;;;;;;35.03;17.77;;;4.60;99.90;;;;;;5089721;28;20711;-63
2024/03/01 04:42:42;;;;;;;35.00;17.80;;;4.60;99.90;;;;;;5089435;28;20681;-64
2024/03/01 04:45:09;;;;;;;30.25;17.77;;;4.70;99.90;;;;;;5089701;28;20220;-62
2024/03/01 04:47:37;;;;;;;29.40;17.95;;;4.70;99.90;;;;;;5089670;28;20570;-62
2024/03/01 04:50:06;;;;;;;29.83;17.05;;;4.70;99.90;;;;;;5089819;28;20215;-63
2024/03/01 04:52:33;;;;;;;31.90;17.80;;;4.70;99.90;;;;;;5089872;28;20216;-63
2024/03/01 04:54:59;;;;;;;29.05;19.00;;;4.70;99.90;;;;;;5089554;28;20627;-61
2024/03/01 04:57:27;;;;;;;32.17;17.40;;;4.70;99.90;;;;;;5090213;28;20211;-63
2024/03/01 04:59:54;;;;;;;28.23;15.85;;;4.70;99.90;;;;;;5090210;28;20268;-63
2024/03/01 05:02:20;;;;;;;25.35;16.40;;;4.70;99.90;;;;;;5111741;22;20228;-61
2024/03/01 05:04:49;;;;;;;30.75;18.20;;;4.70;99.90;;;;;;5101860;28;20654;-61
2024/03/01 05:07:16;;;;;;;31.30;17.92;;;4.70;99.90;;;;;;5101818;28;20200;-61
2024/03/01 05:09:43;;;;;;;31.85;17.75;;;4.70;99.90;;;;;;5099255;28;20223;-62
2024/03/01 05:12:13;;;;;;;26.63;17.90;;;4.70;99.90;;;;;;5095935;28;20224;-61
2024/03/01 05:14:40;;;;;;;34.45;18.15;;;4.70;99.90;;;;;;5100959;28;20298;-62
2024/03/01 05:17:07;;;;;;;31.95;17.30;;;4.70;99.90;;;;;;5095957;28;20680;-61
2024/03/01 05:19:38;;;;;;;28.65;16.92;;;4.60;99.90;;;;;;5097784;28;20200;-62
2024/03/01 05:22:12;;;;;;;28.50;17.25;;;4.60;99.90;;;;;;5094184;28;20255;-63
2024/03/01 05:24:39;;;;;;;31.08;17.58;;;4.60;99.90;;;;;;5077027;28;20196;-62
2024/03/01 05:27:12;;;;;;;32.28;18.13;;;4.70;99.90;;;;;;5082093;28;20197;-60
2024/03/01 05:29:39;;;;;;;31.65;16.83;;;4.70;99.90;;;;;;5089634;28;20341;-62
2024/03/01 05:32:06;;;;;;;34.22;19.15;;;4.60;99.90;;;;;;5077451;28;20717;-62
2024/03/01 05:34:32;;;;;;;31.05;18.88;;;4.70;99.90;;;;;;5076890;28;20620;-62
2024/03/01 05:36:59;;;;;;;30.55;18.80;;;4.70;99.90;;;;;;5077332;28;20205;-62
2024/03/01 05:39:27;;;;;;;27.75;17.38;;;4.70;99.90;;;;;;5077202;28;20212;-62
2024/03/01 05:41:54;;;;;;;33.20;18.05;;;4.70;99.90;;;;;;5077118;28;20223;-63
2024/03/01 05:44:22;;;;;;;34.88;20.15;;;4.70;99.90;;;;;;5077045;28;20212;-62
2024/03/01 05:46:48;;;;;;;28.95;16.77;;;4.70;99.90;;;;;;5076716;28;20645;-62
2024/03/01 05:49:15;;;;;;;32.50;17.65;;;4.80;99.90;;;;;;5077147;28;20201;-63
2024/03/01 05:51:42;;;;;;;33.38;17.83;;;4.80;99.90;;;;;;5076995;28;20233;-62
2024/03/01 05:54:10;;;;;;;31.75;17.20;;;4.80;99.90;;;;;;5077530;28;20201;-62
2024/03/01 05:56:38;;;;;;;28.90;18.63;;;4.80;99.90;;;;;;5077853;28;20205;-60
2024/03/01 05:59:05;;;;;;;30.13;18.10;;;4.80;99.90;;;;;;5077156;28;20201;-62
2024/03/01 06:01:32;;;;;;;35.10;17.95;;;4.90;99.90;;;;;;5076746;28;20242;-63
2024/03/01 06:03:59;;;;;;;29.02;17.70;;;4.90;99.90;;;;;;5076751;28;20196;-62
2024/03/01 06:06:26;;;;;;;29.55;18.13;;;5.00;99.90;;;;;;5077210;28;20224;-63
2024/03/01 06:08:53;;;;;;;30.77;17.73;;;5.00;99.90;;;;;;5077522;28;20204;-62
2024/03/01 06:11:19;;;;;;;34.67;19.02;;;5.10;99.90;;;;;;5077897;28;20221;-61
2024/03/01 06:13:47;;;;;;;32.35;19.75;;;5.10;99.90;;;;;;5075811;28;20217;-63
2024/03/01 06:16:14;;;;;;;32.90;20.50;;;5.20;99.90;;;;;;5076226;28;20213;-61
2024/03/01 06:18:41;;;;;;;28.90;19.48;;;5.20;99.90;;;;;;5076266;28;20212;-63
2024/03/01 06:21:08;;;;;;;29.45;18.75;;;5.30;99.90;;;;;;5075972;28;20221;-62
2024/03/01 06:23:35;;;;;;;33.33;17.48;;;5.30;99.90;;;;;;5076539;28;20663;-63
2024/03/01 06:26:01;;;;;;;33.20;20.08;;;5.40;99.90;;;;;;5076632;28;20212;-63
2024/03/01 06:28:28;;;;;;;29.92;18.88;;;5.40;99.90;;;;;;5076279;28;20203;-61
2024/03/01 06:30:56;;;;;;;33.42;19.27;;;5.40;99.90;;;;;;5077101;28;20314;-61
2024/03/01 06:33:23;;;;;;;33.42;18.58;;;5.40;99.90;;;;;;5076729;28;20299;-63
2024/03/01 06:35:49;;;;;;;28.17;16.50;;;5.40;99.90;;;;;;5075145;28;20208;-63
2024/03/01 06:38:17;;;;;;;31.08;18.40;;;5.40;99.90;;;;;;5076680;28;20202;-62
2024/03/01 06:40:43;;;;;;;32.20;18.92;;;5.50;99.90;;;;;;5076179;28;20205;-62
2024/03/01 06:43:10;;;;;;;31.45;18.20;;;5.50;99.90;;;;;;5077813;28;20197;-62
2024/03/01 06:45:37;;;;;;;29.45;18.10;;;5.50;99.90;;;;;;5077603;28;20280;-63
2024/03/01 06:48:06;;;;;;;30.00;17.52;;;5.50;99.90;;;;;;5076725;28;20204;-63
2024/03/01 06:50:33;;;;;;;26.40;16.83;;;5.50;99.90;;;;;;5076718;28;20201;-63
2024/03/01 06:52:59;;;;;;;32.33;18.48;;;5.60;99.90;;;;;;5076677;28;20671;-59
2024/03/01 06:55:26;;;;;;;31.85;18.90;;;5.60;99.90;;;;;;5076302;28;20224;-63
2024/03/01 06:57:53;;;;;;;33.40;19.80;;;5.60;99.90;;;;;;5076791;28;20209;-64
2024/03/01 07:00:20;;;;;;;33.95;20.38;;;5.70;99.90;;;;;;5076928;28;20204;-62
2024/03/01 07:02:47;;;;;;;34.97;19.35;;;5.70;99.90;;;;;;5080635;28;20786;-62
2024/03/01 07:05:15;;;;;;;33.97;19.05;;;5.80;99.90;;;;;;5087148;28;20201;-61
2024/03/01 07:07:42;;;;;;;32.22;19.92;;;5.90;99.90;;;;;;5087708;28;20209;-62
2024/03/01 07:10:08;;;;;;;33.63;19.98;;;6.00;99.90;;;;;;5084304;28;20290;-62
2024/03/01 07:12:36;;;;;;;32.25;19.58;;;6.10;99.90;;;;;;5087151;28;20288;-62
2024/03/01 07:15:02;;;;;;;28.60;19.23;;;6.20;99.90;;;;;;5088092;28;20234;-62
2024/03/01 07:17:29;;;;;;;31.60;19.27;;;6.30;99.90;;;;;;5088561;28;20212;-63
2024/03/01 07:19:56;;;;;;;31.92;19.83;;;6.40;99.90;;;;;;5088379;28;20201;-64
2024/03/01 07:22:24;;;;;;;31.85;20.33;;;6.50;99.90;;;;;;5088325;28;20280;-63
2024/03/01 07:24:51;;;;;;;31.33;18.25;;;6.50;99.90;;;;;;5079468;28;20663;-63
2024/03/01 07:27:17;;;;;;;32.40;19.65;;;6.60;99.90;;;;;;5078512;28;20220;-63
2024/03/01 07:29:44;;;;;;;35.95;18.90;;;6.70;99.90;;;;;;5077987;28;20197;-62
2024/03/01 07:32:11;;;;;;;36.25;19.05;;;6.80;99.90;;;;;;5084235;28;20221;-62
2024/03/01 07:34:38;;;;;;;29.48;19.23;;;6.90;99.90;;;;;;5090173;28;20654;-61
2024/03/01 07:37:04;;;;;;;30.92;18.38;;;7.00;99.90;;;;;;5078619;28;20209;-62
2024/03/01 07:39:32;;;;;;;34.72;17.98;;;7.10;99.90;;;;;;5076491;28;20205;-62
2024/03/01 07:41:59;;;;;;;34.53;18.23;;;7.10;99.90;;;;;;5077953;28;20231;-62
2024/03/01 07:44:26;;;;;;;28.73;18.30;;;7.20;99.90;;;;;;5078250;28;20201;-63
2024/03/01 07:46:57;;;;;;;30.98;19.65;;;7.30;99.90;;;;;;5077319;28;20205;-62
2024/03/01 07:49:24;;;;;;;30.50;18.85;;;7.30;99.90;;;;;;5076576;28;20560;-61
2024/03/01 07:51:52;;;;;;;27.90;18.42;;;7.40;99.90;;;;;;5075712;28;20220;-63
2024/03/01 07:54:19;;;;;;;31.02;18.70;;;7.50;99.90;;;;;;5077092;28;20259;-61
2024/03/01 07:56:47;;;;;;;29.95;18.65;;;7.60;99.90;;;;;;5075962;28;20200;-62
2024/03/01 07:59:14;;;;;;;33.45;19.55;;;7.60;99.90;;;;;;5076479;28;20585;-62
2024/03/01 08:01:41;;;;;;;32.30;18.45;;;7.70;99.90;;;;;;5075764;28;20249;-63
2024/03/01 08:04:07;;;;;;;32.58;19.55;;;7.80;99.90;;;;;;5076764;28;20228;-64
2024/03/01 08:06:35;;;;;;;35.25;21.17;;;7.80;99.90;;;;;;5075889;28;20296;-62
2024/03/01 08:09:02;;;;;;;33.60;18.45;;;7.80;99.90;;;;;;5075362;28;20274;-62
2024/03/01 08:11:41;;;;;;;29.45;18.15;;;7.90;99.90;;;;;;5074608;28;20229;-63
2024/03/01 08:14:20;;;;;;;31.48;17.42;;;7.90;99.90;;;;;;5074828;28;20208;-62
2024/03/01 08:16:50;;;;;;;24.42;16.60;;;8.00;99.90;;;;;;5075944;28;20189;-62
2024/03/01 08:19:17;;;;;;;29.98;18.02;;;8.10;99.90;;;;;;5076777;28;20197;-60
2024/03/01 08:21:44;;;;;;;24.98;18.75;;;8.30;99.90;;;;;;5076133;28;20220;-63
2024/03/01 08:24:11;;;;;;;24.83;16.88;;;8.50;99.90;;;;;;5076698;28;20201;-61
2024/03/01 08:26:37;;;;;;;31.33;19.52;;;8.60;99.90;;;;;;5078894;28;20201;-62
2024/03/01 08:29:04;;;;;;;32.03;17.77;;;8.80;99.90;;;;;;5077389;28;20204;-62
2024/03/01 08:31:35;;;;;;;29.05;16.95;;;8.90;99.90;;;;;;5074879;28;20221;-62
2024/03/01 08:34:08;;;;;;;25.83;17.17;;;9.00;99.90;;;;;;5076291;28;20209;-62
2024/03/01 08:36:35;;;;;;;26.48;17.17;;;9.10;99.90;;;;;;5076468;28;20589;-62
2024/03/01 08:39:11;;;;;;;26.48;17.63;;;9.10;99.90;;;;;;5075898;28;20668;-62
2024/03/01 08:41:39;;;;;;;28.48;18.05;;;9.20;99.90;;;;;;5076114;28;20224;-63
2024/03/01 08:44:38;;;;;;;23.80;16.13;;;9.30;99.90;;;;;;5076157;28;20201;-62
2024/03/01 08:47:12;;;;;;;33.13;16.50;;;9.40;99.90;;;;;;5078683;28;20419;-61
2024/03/01 08:50:15;;;;;;;26.17;17.58;;;9.50;99.90;;;;;;5078020;28;20424;-62
2024/03/01 08:52:42;;;;;;;30.27;19.57;;;9.60;99.90;;;;;;5079867;28;20294;-63
2024/03/01 08:55:38;;;;;;;30.00;17.17;;;9.80;99.90;;;;;;5083941;28;20443;-61
2024/03/01 08:58:12;;;;;;;26.13;16.37;;;10.00;99.90;;;;;;5084015;28;20424;-63
2024/03/01 09:00:42;;;;;;;27.83;16.90;;;10.40;99.90;;;;;;5086973;28;20416;-63
2024/03/01 09:03:18;;;;;;;26.90;16.90;;;10.70;99.90;;;;;;5084559;28;20447;-62
2024/03/01 09:05:45;;;;;;;22.07;15.37;;;10.90;99.90;;;;;;5080781;28;20416;-63
2024/03/01 09:08:18;;;;;;;23.90;15.47;;;11.00;99.90;;;;;;5079313;28;20513;-62
2024/03/01 09:10:45;;;;;;;23.63;16.30;;;11.10;99.90;;;;;;5079366;28;20430;-62
2024/03/01 09:13:15;;;;;;;26.10;15.33;;;11.10;99.90;;;;;;5079637;28;20542;-64
2024/03/01 09:15:45;;;;;;;22.57;17.17;;;11.10;99.90;;;;;;5080738;28;20450;-62
2024/03/01 09:18:49;;;;;;;24.70;15.87;;;11.00;99.90;;;;;;5079392;28;20443;-62
2024/03/01 09:21:43;;;;;;;24.17;15.87;;;11.00;99.90;;;;;;5079564;28;20846;-63
2024/03/01 09:24:16;;;;;;;24.73;16.30;;;10.80;99.90;;;;;;5080344;28;20438;-62
2024/03/01 09:26:44;;;;;;;24.10;15.87;;;10.70;99.90;;;;;;5079485;28;20415;-61
2024/03/01 09:29:29;;;;;;;25.27;16.70;;;10.70;99.90;;;;;;5079270;28;20439;-61
2024/03/01 09:31:59;;;;;;;27.60;16.60;;;10.70;99.90;;;;;;5079987;28;20473;-62
2024/03/01 09:34:31;;;;;;;20.57;15.00;;;10.80;99.90;;;;;;5079346;28;20479;-62
2024/03/01 09:36:58;;;;;;;20.47;14.20;;;10.80;99.90;;;;;;5079033;28;20424;-61
2024/03/01 09:39:25;;;;;;;23.90;15.47;;;10.90;99.90;;;;;;5078491;28;20454;-61
2024/03/01 09:42:04;;;;;;;22.17;14.67;;;11.00;99.90;;;;;;5078269;28;20459;-62
2024/03/01 09:44:43;;;;;;;23.90;15.70;;;11.10;99.90;;;;;;5078089;28;20427;-62
2024/03/01 09:47:25;;;;;;;25.90;15.67;;;11.10;99.90;;;;;;5077652;28;20419;-63
2024/03/01 09:50:08;;;;;;;24.27;15.60;;;11.20;99.90;;;;;;5078309;28;20424;-61
2024/03/01 09:52:45;;;;;;;27.37;16.57;;;11.20;99.90;;;;;;5079143;28;20536;-62
2024/03/01 09:55:23;;;;;;;25.97;16.70;;;11.30;99.90;;;;;;5085974;28;20486;-61
2024/03/01 09:58:00;;;;;;;25.07;16.17;;;11.40;99.60;;;;;;5087493;28;20437;-62
2024/03/01 10:00:31;;;;;;;20.43;14.60;;;11.50;99.30;;;;;;5085564;28;20428;-60
2024/03/01 10:03:12;;;;;;;22.37;15.43;;;11.60;99.20;;;;;;5083491;28;20506;-61
2024/03/01 10:05:56;;;;;;;29.63;16.00;;;11.60;99.00;;;;;;5083210;28;20424;-63
2024/03/01 10:08:29;;;;;;;20.73;14.00;;;11.70;98.90;;;;;;5081241;28;20422;-62
2024/03/01 10:11:14;;;;;;;21.83;14.73;;;11.80;98.70;;;;;;5082062;28;20420;-63
2024/03/01 10:14:02;;;;;;;20.77;13.87;;;11.80;98.40;;;;;;5083423;28;20486;-62
2024/03/01 10:16:45;;;;;;;19.63;13.40;;;11.90;98.20;;;;;;5082505;28;20453;-61
2024/03/01 10:19:30;;;;;;;22.10;14.37;;;11.90;98.00;;;;;;5082312;28;20436;-61
2024/03/01 10:22:11;;;;;;;20.40;12.70;;;11.90;98.00;;;;;;5081645;28;20464;-62
2024/03/01 10:24:53;;;;;;;19.27;13.20;;;12.10;97.90;;;;;;5079768;28;20419;-62
2024/03/01 10:27:27;;;;;;;20.97;14.03;;;12.10;97.40;;;;;;5082958;28;20419;-63
2024/03/01 10:30:05;;;;;;;19.20;13.20;;;12.20;96.50;;;;;;5079887;28;20427;-64
2024/03/01 10:32:55;;;;;;;16.80;12.13;;;12.10;96.20;;;;;;5077910;28;20495;-62
2024/03/01 10:35:25;;;;;;;22.53;13.60;;;12.10;96.00;;;;;;5078401;28;20416;-62
2024/03/01 10:38:09;;;;;;;21.07;14.50;;;12.10;96.10;;;;;;5079945;28;20489;-61
2024/03/01 10:40:45;;;;;;;23.93;13.03;;;12.10;95.80;;;;;;5081517;28;20433;-61
2024/03/01 10:43:17;;;;;;;19.73;11.67;;;12.10;95.60;;;;;;5085543;28;20419;-60
2024/03/01 10:45:50;;;;;;;16.50;11.90;;;12.10;95.70;;;;;;5086598;28;20427;-61
2024/03/01 10:48:17;;;;;;;20.67;12.07;;;12.20;95.80;;;;;;5088300;28;20420;-62
2024/03/01 10:50:49;;;;;;;17.30;12.00;;;12.20;95.70;;;;;;5086955;28;20467;-62
2024/03/01 10:53:25;;;;;;;18.27;12.17;;;12.40;95.30;;;;;;5084294;28;20841;-61
2024/03/01 10:56:01;;;;;;;17.33;11.13;;;12.50;94.90;;;;;;5087419;28;20427;-62
2024/03/01 10:58:36;;;;;;;20.70;12.27;;;12.70;94.20;;;;;;5086618;28;20431;-61
2024/03/01 11:01:10;;;;;;;17.07;11.93;;;12.70;93.30;;;;;;5085809;28;20463;-61
2024/03/01 11:03:44;;;;;;;17.30;11.73;;;12.70;92.80;;;;;;5084728;28;20434;-62
2024/03/01 11:06:19;;;;;;;16.57;10.80;;;12.80;92.50;;;;;;5090922;28;20475;-62
2024/03/01 11:08:54;;;;;;;19.20;12.07;;;12.80;92.10;;;;;;5092757;28;20423;-61
2024/03/01 11:11:28;;;;;;;15.33;10.40;;;12.80;92.00;;;;;;5079346;28;20990;-61
2024/03/01 11:13:58;;;;;;;19.10;11.60;;;12.90;92.00;;;;;;5078839;28;20489;-61
2024/03/01 11:16:28;;;;;;;16.50;10.70;;;13.00;91.70;;;;;;5076920;28;20475;-61
2024/03/01 11:19:00;;;;;;;17.00;11.50;;;13.10;91.10;;;;;;5076483;28;20428;-59
2024/03/01 11:21:29;;;;;;;14.47;11.57;;;13.00;90.80;;;;;;5075335;28;20452;-61
2024/03/01 11:24:03;;;;;;;16.90;11.60;;;12.90;90.50;;;;;;5075535;28;20450;-61
2024/03/01 11:26:38;;;;;;;15.50;10.17;;;12.70;90.60;;;;;;5077020;28;20439;-60
2024/03/01 11:29:08;;;;;;;14.40;10.73;;;12.50;90.90;;;;;;5076569;28;20806;-62
2024/03/01 11:31:39;;;;;;;16.37;10.37;;;12.30;91.50;;;;;;5077672;28;20495;-62
2024/03/01 11:34:11;;;;;;;24.23;11.90;;;12.20;92.10;;;;;;5079061;28;20475;-62
2024/03/01 11:36:47;;;;;;;18.23;12.20;;;12.10;92.70;;;;;;5076755;28;20929;-66
2024/03/01 11:39:29;;;;;;;18.90;11.03;;;12.10;93.20;;;;;;5080458;28;20916;-61
2024/03/01 11:42:08;;;;;;;20.97;12.20;;;12.20;93.40;;;;;;5084441;28;20474;-62
2024/03/01 11:44:44;;;;;;;16.27;11.50;;;12.20;93.40;;;;;;5076987;28;20431;-62
2024/03/01 11:47:26;;;;;;;19.30;11.90;;;12.10;93.30;;;;;;5077480;28;20423;-63
2024/03/01 11:50:07;;;;;;;19.13;11.37;;;12.10;93.50;;;;;;5077207;28;20437;-62
2024/03/01 11:53:01;;;;;;;13.87;10.07;;;12.00;93.70;;;;;;5076954;28;20911;-63
2024/03/01 11:55:58;;;;;;;12.43;8.53;;;12.00;94.00;;;;;;5074584;28;20479;-61
2024/03/01 11:58:37;;;;;;;15.90;10.07;;;11.90;94.30;;;;;;5077299;28;20435;-61
2024/03/01 12:01:23;;;;;;;12.47;9.80;;;11.90;94.40;;;;;;5076706;28;20497;-63
2024/03/01 12:04:06;;;;;;;15.40;10.23;;;11.90;94.60;;;;;;5077279;28;20420;-62
2024/03/01 12:07:05;;;;;;;11.47;8.77;;;11.80;94.90;;;;;;5077431;28;20511;-62
2024/03/01 12:09:44;;;;;;;15.23;10.00;;;11.80;95.10;;;;;;5077072;28;20477;-61
2024/03/01 12:12:18;;;;;;;14.90;8.97;;;11.70;95.20;;;;;;5076358;28;20467;-59
2024/03/01 12:14:55;;;;;;;15.60;10.00;;;11.70;95.30;;;;;;5077449;28;20561;-61
2024/03/01 12:17:29;;;;;;;18.53;10.67;;;11.80;95.30;;;;;;5077251;28;20430;-63
2024/03/01 12:20:04;;;;;;;17.87;11.77;;;11.80;95.40;;;;;;5076891;28;20497;-60
2024/03/01 12:22:49;;;;;;;16.93;10.47;;;11.80;95.50;;;;;;5077112;28;20473;-62
2024/03/01 12:25:16;;;;;;;16.10;11.47;;;11.80;95.70;;;;;;5078458;28;20423;-62
2024/03/01 12:27:57;;;;;;;20.53;11.50;;;11.80;95.90;;;;;;5078529;28;20443;-62
2024/03/01 12:30:27;;;;;;;12.63;9.50;;;11.80;96.10;;;;;;5076057;28;20427;-63
2024/03/01 12:33:10;;;;;;;16.07;10.93;;;11.90;96.20;;;;;;5077783;28;20520;-63
2024/03/01 12:35:44;;;;;;;13.43;9.67;;;12.00;96.00;;;;;;5080544;28;20458;-61
2024/03/01 12:38:16;;;;;;;14.10;10.43;;;12.00;95.90;;;;;;5080200;28;20793;-62
2024/03/01 12:41:07;;;;;;;15.60;9.80;;;12.00;96.00;;;;;;5080378;28;20526;-61
2024/03/01 12:43:54;;;;;;;13.87;10.23;;;12.10;95.90;;;;;;5082258;28;20447;-61
2024/03/01 12:46:43;;;;;;;17.40;11.63;;;12.20;96.00;;;;;;5081357;28;20950;-62
2024/03/01 12:49:23;;;;;;;16.27;11.90;;;12.30;96.00;;;;;;5081601;28;20522;-61
2024/03/01 12:52:01;;;;;;;15.30;9.40;;;12.50;95.80;;;;;;5083143;28;20455;-62